Time;durP1;ratioP1;P1;durP2;ratioP2;P2;SDS_P1;SDS_P2;PMS_P1;PMS_P2;Temp;Humidity;BMP_temperature;BMP_pressure;BME280_temperature;BME280_humidity;BME280_pressure;Samples;Min_cycle;Max_cycle;Signal;HPM_P1;HPM_P2
2021/09/11 00:01:33;;;;;;;9.00;5.18;;;18.40;91.60;;;;;;6309183;22;20026;-75
2021/09/11 00:04:00;;;;;;;12.90;5.40;;;18.40;91.50;;;;;;6315988;22;20021;-74
2021/09/11 00:06:31;;;;;;;9.10;4.80;;;18.30;91.60;;;;;;6288111;22;20042;-74
2021/09/11 00:08:59;;;;;;;11.43;4.75;;;18.30;91.50;;;;;;6315712;22;20042;-74
2021/09/11 00:11:26;;;;;;;9.55;5.22;;;18.20;91.30;;;;;;6315405;22;20033;-73
2021/09/11 00:13:53;;;;;;;9.25;4.82;;;18.20;91.20;;;;;;6315057;22;20046;-75
2021/09/11 00:16:20;;;;;;;11.30;5.18;;;18.20;90.90;;;;;;6314481;22;20023;-75
2021/09/11 00:18:49;;;;;;;7.88;4.80;;;18.20;91.00;;;;;;6315135;22;20027;-75
2021/09/11 00:21:16;;;;;;;7.22;4.35;;;18.10;91.20;;;;;;6315322;22;20053;-75
2021/09/11 00:23:43;;;;;;;9.20;4.28;;;18.20;91.10;;;;;;6314776;22;20031;-75
2021/09/11 00:26:11;;;;;;;8.80;4.07;;;18.10;91.10;;;;;;6315690;22;20048;-75
2021/09/11 00:28:38;;;;;;;12.88;4.95;;;18.10;90.90;;;;;;6314677;22;20027;-75
2021/09/11 00:31:05;;;;;;;6.55;4.43;;;18.10;91.10;;;;;;6315439;22;20023;-75
2021/09/11 00:33:32;;;;;;;6.88;4.28;;;18.00;91.00;;;;;;6315702;22;20372;-75
2021/09/11 00:36:01;;;;;;;9.55;4.45;;;18.10;91.20;;;;;;6317224;22;20023;-75
2021/09/11 00:38:31;;;;;;;10.15;5.57;;;18.10;91.00;;;;;;6316951;22;20025;-75
2021/09/11 00:40:59;;;;;;;9.38;4.40;;;18.10;91.00;;;;;;6317201;22;20016;-75
2021/09/11 00:43:28;;;;;;;7.88;4.28;;;18.10;91.20;;;;;;6316810;22;20303;-75
2021/09/11 00:45:56;;;;;;;10.80;4.93;;;18.20;90.90;;;;;;6284599;22;20069;-75
2021/09/11 00:48:23;;;;;;;7.20;4.68;;;18.20;91.10;;;;;;6283599;22;20035;-75
2021/09/11 00:50:50;;;;;;;7.70;4.78;;;18.30;91.10;;;;;;6286488;22;20031;-75
2021/09/11 00:53:20;;;;;;;10.15;4.80;;;18.20;91.10;;;;;;6285459;22;20421;-75
2021/09/11 00:55:48;;;;;;;7.10;4.72;;;18.30;90.70;;;;;;6285310;22;20028;-75
2021/09/11 00:58:16;;;;;;;10.93;4.32;;;18.20;90.80;;;;;;6285027;22;20016;-75
2021/09/11 01:00:43;;;;;;;8.02;4.90;;;18.30;90.80;;;;;;6280387;22;20015;-75
2021/09/11 01:03:11;;;;;;;9.30;4.57;;;18.40;90.90;;;;;;6284173;22;20024;-75
2021/09/11 01:05:39;;;;;;;6.35;4.32;;;18.40;90.80;;;;;;6284190;22;20051;-74
2021/09/11 01:08:06;;;;;;;6.80;4.10;;;18.40;90.90;;;;;;6285265;22;20030;-74
2021/09/11 01:10:38;;;;;;;8.60;4.38;;;18.40;90.70;;;;;;6285658;22;20026;-74
2021/09/11 01:13:05;;;;;;;9.05;4.80;;;18.30;90.80;;;;;;6285916;22;20023;-74
2021/09/11 01:15:37;;;;;;;8.70;4.70;;;18.30;90.80;;;;;;1713366;22;10021823;-74
2021/09/11 01:18:05;;;;;;;8.23;4.80;;;18.40;90.70;;;;;;4983537;22;10000941;-74
2021/09/11 01:20:39;;;;;;;8.32;4.65;;;18.40;91.00;;;;;;6285180;22;20024;-74
2021/09/11 01:23:07;;;;;;;7.82;4.63;;;18.40;90.70;;;;;;6285221;22;20031;-74
2021/09/11 01:25:36;;;;;;;10.32;4.65;;;18.30;90.70;;;;;;6283824;22;20025;-74
2021/09/11 01:28:08;;;;;;;8.57;4.63;;;18.30;90.70;;;;;;6283991;22;20073;-74
2021/09/11 01:30:35;;;;;;;8.98;4.70;;;18.30;90.80;;;;;;6285490;22;20020;-74
2021/09/11 01:33:02;;;;;;;9.00;5.32;;;18.40;90.90;;;;;;6286313;22;20077;-74
2021/09/11 01:35:29;;;;;;;7.47;4.53;;;18.40;90.90;;;;;;6284138;22;20042;-74
2021/09/11 01:37:57;;;;;;;9.80;4.70;;;18.40;91.00;;;;;;6284064;22;20015;-75
2021/09/11 01:40:24;;;;;;;8.45;4.82;;;18.50;91.00;;;;;;6283024;22;20028;-74
2021/09/11 01:42:53;;;;;;;9.13;4.50;;;18.60;90.90;;;;;;6284941;22;20184;-74
2021/09/11 01:45:22;;;;;;;7.20;4.65;;;18.60;90.60;;;;;;6296196;22;20066;-74
2021/09/11 01:47:51;;;;;;;9.90;5.20;;;18.60;90.30;;;;;;6312671;22;20019;-73
2021/09/11 01:50:20;;;;;;;10.00;4.65;;;18.50;90.50;;;;;;6287182;22;20015;-75
2021/09/11 01:52:48;;;;;;;9.88;4.57;;;18.60;90.60;;;;;;6314481;22;20027;-75
2021/09/11 01:55:16;;;;;;;10.63;5.15;;;18.60;90.70;;;;;;6313479;22;20049;-75
2021/09/11 01:57:46;;;;;;;9.23;5.30;;;18.60;90.70;;;;;;6313561;22;20022;-75
2021/09/11 02:00:16;;;;;;;;;;;18.50;90.60;;;;;;6309021;22;20023;-75
2021/09/11 02:02:43;;;;;;;8.05;4.80;;;18.60;90.60;;;;;;6313853;22;19926;-75
2021/09/11 02:05:11;;;;;;;9.57;5.47;;;18.60;90.60;;;;;;6313722;22;20023;-74
2021/09/11 02:07:39;;;;;;;13.02;5.35;;;18.60;90.70;;;;;;6313903;22;20019;-74
2021/09/11 02:10:08;;;;;;;7.85;4.93;;;18.60;90.70;;;;;;6314622;22;20015;-74
2021/09/11 02:12:35;;;;;;;9.20;5.13;;;18.60;90.80;;;;;;6313231;22;20034;-74
2021/09/11 02:15:03;;;;;;;10.05;5.20;;;18.60;90.80;;;;;;6315948;22;20034;-75
2021/09/11 02:17:32;;;;;;;10.57;6.07;;;18.60;90.90;;;;;;6315401;22;20027;-74
2021/09/11 02:19:59;;;;;;;7.20;5.43;;;18.60;90.90;;;;;;6315762;22;20211;-74
2021/09/11 02:22:26;;;;;;;9.38;5.50;;;18.60;90.90;;;;;;6316078;22;20026;-74
2021/09/11 02:24:54;;;;;;;9.57;5.47;;;18.60;90.90;;;;;;6315788;22;20244;-74
2021/09/11 02:27:21;;;;;;;8.73;5.45;;;18.60;90.90;;;;;;6316136;22;20352;-74
2021/09/11 02:29:48;;;;;;;10.55;5.45;;;18.60;90.90;;;;;;6315064;22;20019;-75
2021/09/11 02:32:16;;;;;;;9.45;5.35;;;18.60;90.90;;;;;;6316329;22;20239;-74
2021/09/11 02:34:45;;;;;;;7.40;4.97;;;18.60;90.90;;;;;;6288906;22;20021;-74
2021/09/11 02:37:12;;;;;;;9.38;5.60;;;18.60;90.80;;;;;;6316046;22;20015;-74
2021/09/11 02:39:43;;;;;;;7.43;5.15;;;18.60;90.60;;;;;;6315482;22;20092;-74
2021/09/11 02:42:11;;;;;;;8.60;4.88;;;18.60;90.70;;;;;;6313623;22;20034;-74
2021/09/11 02:44:39;;;;;;;9.63;5.63;;;18.60;90.70;;;;;;6315107;22;20019;-74
2021/09/11 02:47:06;;;;;;;11.32;5.78;;;18.60;90.70;;;;;;6313923;22;20023;-74
2021/09/11 02:49:33;;;;;;;8.93;5.22;;;18.60;90.70;;;;;;6314415;22;20022;-74
2021/09/11 02:52:02;;;;;;;7.65;4.97;;;18.60;90.80;;;;;;6314846;22;20031;-74
2021/09/11 02:54:29;;;;;;;9.82;4.55;;;18.70;90.70;;;;;;6315174;22;20370;-74
2021/09/11 02:56:56;;;;;;;7.50;4.93;;;18.70;90.80;;;;;;6315163;22;20203;-75
2021/09/11 02:59:24;;;;;;;8.77;5.00;;;18.60;90.70;;;;;;6315124;22;20026;-75
2021/09/11 03:01:51;;;;;;;7.75;5.38;;;18.70;90.90;;;;;;6310994;22;20015;-74
2021/09/11 03:04:18;;;;;;;13.45;6.07;;;18.70;90.70;;;;;;6315710;22;20071;-74
2021/09/11 03:06:45;;;;;;;8.65;5.32;;;18.70;90.60;;;;;;6314858;22;20360;-74
2021/09/11 03:09:14;;;;;;;9.25;5.93;;;18.60;90.50;;;;;;6315549;22;20424;-74
2021/09/11 03:11:41;;;;;;;11.70;5.07;;;18.70;90.50;;;;;;6314631;22;20023;-74
2021/09/11 03:14:08;;;;;;;9.05;5.70;;;18.60;90.40;;;;;;6315561;22;20029;-75
2021/09/11 03:16:35;;;;;;;9.70;6.30;;;18.60;90.40;;;;;;6314339;22;20034;-74
2021/09/11 03:19:03;;;;;;;8.32;5.15;;;18.60;90.40;;;;;;6316714;22;20015;-74
2021/09/11 03:21:30;;;;;;;9.27;5.90;;;18.60;90.50;;;;;;6315404;22;20069;-74
2021/09/11 03:23:57;;;;;;;7.93;5.00;;;18.60;90.60;;;;;;6316276;22;20015;-75
2021/09/11 03:26:25;;;;;;;10.05;5.72;;;18.60;90.40;;;;;;6316246;22;20368;-74
2021/09/11 03:28:53;;;;;;;10.93;5.70;;;18.60;90.40;;;;;;6316746;22;20015;-74
2021/09/11 03:31:20;;;;;;;9.73;5.78;;;18.60;90.40;;;;;;6315770;22;20354;-75
2021/09/11 03:33:47;;;;;;;12.18;6.03;;;18.60;90.60;;;;;;6315420;22;20034;-75
2021/09/11 03:36:14;;;;;;;9.93;5.60;;;18.60;90.60;;;;;;6315935;22;20030;-75
2021/09/11 03:38:41;;;;;;;8.98;5.25;;;18.60;90.60;;;;;;6313176;22;20199;-75
2021/09/11 03:41:10;;;;;;;8.68;5.75;;;18.60;90.80;;;;;;6316163;22;20290;-75
2021/09/11 03:43:39;;;;;;;8.20;5.28;;;18.60;90.80;;;;;;6286986;22;20066;-75
2021/09/11 03:46:06;;;;;;;8.00;4.78;;;18.60;91.10;;;;;;6316137;22;20023;-75
2021/09/11 03:48:33;;;;;;;8.23;5.38;;;18.60;90.90;;;;;;6314572;22;20023;-75
2021/09/11 03:51:02;;;;;;;10.25;5.63;;;18.60;90.70;;;;;;6315867;22;20023;-75
2021/09/11 03:53:30;;;;;;;12.25;5.07;;;18.70;90.60;;;;;;6315006;22;20046;-75
2021/09/11 03:55:57;;;;;;;8.30;5.22;;;18.70;90.80;;;;;;6317586;22;20030;-75
2021/09/11 03:58:24;;;;;;;8.13;5.13;;;18.60;90.70;;;;;;6289813;22;20413;-75
2021/09/11 04:00:53;;;;;;;8.85;5.22;;;18.70;90.80;;;;;;6311420;22;20063;-75
2021/09/11 04:03:20;;;;;;;8.43;5.18;;;18.70;90.60;;;;;;6289642;22;20015;-75
2021/09/11 04:05:47;;;;;;;9.98;5.68;;;18.70;90.70;;;;;;6316168;22;20027;-75
2021/09/11 04:08:15;;;;;;;7.80;4.90;;;18.70;90.50;;;;;;6316321;22;20102;-75
2021/09/11 04:10:42;;;;;;;10.95;5.57;;;18.70;90.60;;;;;;6316255;22;20043;-75
2021/09/11 04:13:09;;;;;;;8.60;4.80;;;18.60;90.40;;;;;;6316850;22;20031;-75
2021/09/11 04:15:36;;;;;;;12.63;5.80;;;18.70;90.10;;;;;;6289005;22;20027;-76
2021/09/11 04:18:05;;;;;;;9.43;5.78;;;18.60;90.10;;;;;;6316576;22;20029;-75
2021/09/11 04:20:32;;;;;;;8.38;5.60;;;18.60;90.40;;;;;;6317694;22;20026;-75
2021/09/11 04:22:59;;;;;;;8.88;5.35;;;18.60;90.20;;;;;;6317214;22;20015;-75
2021/09/11 04:25:27;;;;;;;9.40;5.95;;;18.60;90.10;;;;;;6289994;22;20019;-75
2021/09/11 04:27:54;;;;;;;8.02;5.25;;;18.60;90.20;;;;;;6316954;22;20019;-75
2021/09/11 04:30:21;;;;;;;8.55;5.85;;;18.60;90.30;;;;;;6317499;22;20035;-75
2021/09/11 04:32:48;;;;;;;9.27;4.97;;;18.60;90.20;;;;;;6315940;22;20027;-75
2021/09/11 04:35:17;;;;;;;9.60;5.72;;;18.60;90.10;;;;;;6316839;22;20030;-75
2021/09/11 04:37:44;;;;;;;9.73;5.18;;;18.60;90.20;;;;;;6317439;22;20352;-75
2021/09/11 04:40:12;;;;;;;9.27;5.60;;;18.60;90.30;;;;;;6317145;22;20027;-75
2021/09/11 04:42:40;;;;;;;9.77;5.70;;;18.60;90.30;;;;;;6316955;22;20034;-75
2021/09/11 04:45:08;;;;;;;8.70;5.32;;;18.60;90.40;;;;;;6316647;22;20027;-75
2021/09/11 04:47:35;;;;;;;9.35;5.70;;;18.60;90.40;;;;;;6316091;22;20019;-75
2021/09/11 04:50:02;;;;;;;10.35;6.15;;;18.70;90.40;;;;;;6317688;22;20015;-75
2021/09/11 04:52:31;;;;;;;8.63;5.32;;;18.60;90.20;;;;;;6288471;22;20192;-75
2021/09/11 04:54:58;;;;;;;9.82;5.35;;;18.60;90.30;;;;;;6315993;22;20027;-75
2021/09/11 04:57:25;;;;;;;10.23;5.82;;;18.70;90.70;;;;;;6315064;22;20057;-75
2021/09/11 04:59:52;;;;;;;9.20;5.68;;;18.70;90.30;;;;;;6287263;22;20074;-75
2021/09/11 05:02:20;;;;;;;9.27;5.50;;;18.70;90.20;;;;;;6310122;22;20023;-75
2021/09/11 05:04:47;;;;;;;8.93;5.25;;;18.60;90.20;;;;;;6313340;22;20068;-75
2021/09/11 05:07:14;;;;;;;10.57;5.85;;;18.60;90.10;;;;;;6313520;22;20023;-75
2021/09/11 05:09:43;;;;;;;11.50;6.03;;;18.70;90.00;;;;;;6314273;22;20027;-75
2021/09/11 05:12:10;;;;;;;8.93;5.70;;;18.60;90.00;;;;;;6315308;22;20070;-75
2021/09/11 05:14:37;;;;;;;9.02;5.72;;;18.60;90.20;;;;;;6314170;22;20027;-75
2021/09/11 05:17:05;;;;;;;9.93;6.18;;;18.60;89.80;;;;;;6315009;22;20073;-75
2021/09/11 05:19:32;;;;;;;11.02;6.90;;;18.60;89.90;;;;;;6314265;22;20026;-75
2021/09/11 05:21:59;;;;;;;11.02;6.05;;;18.60;90.00;;;;;;6316801;22;20307;-75
2021/09/11 05:24:26;;;;;;;10.15;5.65;;;18.60;89.90;;;;;;6315091;22;20027;-75
2021/09/11 05:26:55;;;;;;;9.85;6.32;;;18.60;89.60;;;;;;6315549;22;20222;-75
2021/09/11 05:29:22;;;;;;;9.40;5.57;;;18.70;89.60;;;;;;6314942;22;20023;-75
2021/09/11 05:31:49;;;;;;;8.52;5.43;;;18.70;89.40;;;;;;6315384;22;20027;-75
2021/09/11 05:34:17;;;;;;;11.25;5.60;;;18.70;89.50;;;;;;6316627;22;20015;-74
2021/09/11 05:36:44;;;;;;;11.27;5.78;;;18.70;89.50;;;;;;6314990;22;20192;-76
2021/09/11 05:39:11;;;;;;;8.02;5.25;;;18.70;89.10;;;;;;6316208;22;20023;-75
2021/09/11 05:41:38;;;;;;;9.48;5.93;;;18.70;89.00;;;;;;6316912;22;20031;-75
2021/09/11 05:44:07;;;;;;;14.25;6.40;;;18.80;89.20;;;;;;6315839;22;20248;-76
2021/09/11 05:46:34;;;;;;;13.93;5.80;;;18.70;89.20;;;;;;6315095;22;20031;-75
2021/09/11 05:49:02;;;;;;;9.77;5.82;;;18.70;89.30;;;;;;6288602;22;20023;-75
2021/09/11 05:51:29;;;;;;;8.55;5.72;;;18.70;89.20;;;;;;6316045;22;20102;-75
2021/09/11 05:53:56;;;;;;;10.60;5.95;;;18.70;89.40;;;;;;6316323;22;20023;-75
2021/09/11 05:56:23;;;;;;;10.73;5.88;;;18.70;89.40;;;;;;6316707;22;20034;-75
2021/09/11 05:58:50;;;;;;;10.27;5.57;;;18.70;89.30;;;;;;6316301;22;20333;-75
2021/09/11 06:01:19;;;;;;;10.13;5.65;;;18.70;89.30;;;;;;6310077;22;20211;-75
2021/09/11 06:03:46;;;;;;;9.38;5.88;;;18.70;89.10;;;;;;6315359;22;20184;-75
2021/09/11 06:06:13;;;;;;;9.95;5.63;;;18.70;89.20;;;;;;6316266;22;20022;-75
2021/09/11 06:08:41;;;;;;;11.48;6.15;;;18.70;89.00;;;;;;6314870;22;20027;-75
2021/09/11 06:11:08;;;;;;;11.63;6.20;;;18.70;89.20;;;;;;6316175;22;20118;-75
2021/09/11 06:13:35;;;;;;;9.88;6.22;;;18.80;88.90;;;;;;6288216;22;20027;-75
2021/09/11 06:16:05;;;;;;;8.07;5.28;;;18.70;88.80;;;;;;6316575;22;20062;-75
2021/09/11 06:18:34;;;;;;;12.55;5.95;;;18.70;88.80;;;;;;6315567;22;20034;-75
2021/09/11 06:21:01;;;;;;;9.90;5.22;;;18.70;88.60;;;;;;6316802;22;20307;-74
2021/09/11 06:23:29;;;;;;;9.63;5.30;;;18.90;88.00;;;;;;6315200;22;20019;-75
2021/09/11 06:25:56;;;;;;;9.25;5.28;;;18.90;87.80;;;;;;6315162;22;20030;-76
2021/09/11 06:28:24;;;;;;;10.85;5.65;;;18.90;87.50;;;;;;6314912;22;20027;-74
2021/09/11 06:30:52;;;;;;;9.70;5.70;;;18.80;87.80;;;;;;6286682;22;20019;-73
2021/09/11 06:33:19;;;;;;;12.77;5.60;;;18.80;87.80;;;;;;6315082;22;20021;-74
2021/09/11 06:35:47;;;;;;;9.48;5.28;;;18.90;87.60;;;;;;6285545;22;20022;-75
2021/09/11 06:38:15;;;;;;;8.73;6.10;;;19.00;87.40;;;;;;6314211;22;20285;-75
2021/09/11 06:40:42;;;;;;;11.10;5.88;;;19.00;87.40;;;;;;6313725;22;20049;-75
2021/09/11 06:43:09;;;;;;;11.25;5.65;;;19.10;87.40;;;;;;6314061;22;20065;-75
2021/09/11 06:45:37;;;;;;;12.40;6.10;;;19.10;87.00;;;;;;6313665;22;20023;-75
2021/09/11 06:48:05;;;;;;;8.55;5.55;;;19.10;87.00;;;;;;6315036;22;20057;-74
2021/09/11 06:50:32;;;;;;;10.55;5.97;;;19.00;87.10;;;;;;6314890;22;20025;-74
2021/09/11 06:53:01;;;;;;;9.75;5.93;;;19.00;87.30;;;;;;6318097;22;20377;-75
2021/09/11 06:55:28;;;;;;;10.07;6.05;;;19.10;87.30;;;;;;6317068;22;20038;-75
2021/09/11 06:57:56;;;;;;;8.50;4.75;;;19.30;87.00;;;;;;6317430;22;20018;-75
2021/09/11 07:00:23;;;;;;;8.95;5.28;;;19.40;86.20;;;;;;6310091;22;20027;-75
2021/09/11 07:02:50;;;;;;;9.52;5.45;;;19.60;85.80;;;;;;6317696;22;20015;-75
2021/09/11 07:05:18;;;;;;;10.25;5.53;;;19.60;86.00;;;;;;6317479;22;20015;-75
2021/09/11 07:07:45;;;;;;;9.90;5.00;;;19.70;85.50;;;;;;6316857;22;20271;-75
2021/09/11 07:10:14;;;;;;;10.15;5.07;;;19.80;85.30;;;;;;6317117;22;20066;-75
2021/09/11 07:12:41;;;;;;;8.50;5.25;;;19.80;84.70;;;;;;6318423;22;20026;-73
2021/09/11 07:15:09;;;;;;;8.45;5.38;;;19.80;84.90;;;;;;6318450;22;20049;-75
2021/09/11 07:17:36;;;;;;;10.15;5.30;;;20.00;83.90;;;;;;6317495;22;20322;-76
2021/09/11 07:20:04;;;;;;;11.85;5.55;;;19.90;84.10;;;;;;6318385;22;20023;-75
2021/09/11 07:22:31;;;;;;;9.45;5.28;;;19.90;84.40;;;;;;6318074;22;20234;-74
2021/09/11 07:24:58;;;;;;;7.78;5.05;;;19.90;84.10;;;;;;6319155;22;20023;-74
2021/09/11 07:27:29;;;;;;;10.20;5.47;;;19.90;84.50;;;;;;6319623;22;20019;-74
2021/09/11 07:29:56;;;;;;;7.80;5.00;;;19.90;84.40;;;;;;6320622;22;20015;-73
2021/09/11 07:32:25;;;;;;;6.20;4.22;;;20.00;84.10;;;;;;6320696;22;20253;-73
2021/09/11 07:34:52;;;;;;;8.77;5.00;;;20.00;83.90;;;;;;6291935;22;20015;-73
2021/09/11 07:37:19;;;;;;;7.65;4.63;;;20.00;84.00;;;;;;6318698;22;20015;-73
2021/09/11 07:39:47;;;;;;;8.23;4.75;;;20.00;84.30;;;;;;6319064;22;20019;-74
2021/09/11 07:42:14;;;;;;;9.57;4.47;;;19.90;84.20;;;;;;6318141;22;20066;-74
2021/09/11 07:44:43;;;;;;;7.53;4.70;;;20.10;83.80;;;;;;6319335;22;20023;-74
2021/09/11 07:47:10;;;;;;;8.93;4.63;;;20.10;83.40;;;;;;6319785;22;20371;-74
2021/09/11 07:49:37;;;;;;;8.27;4.38;;;20.10;83.70;;;;;;6318935;22;20015;-74
2021/09/11 07:52:05;;;;;;;7.38;4.68;;;20.10;83.50;;;;;;6319729;22;20116;-75
2021/09/11 07:54:33;;;;;;;8.93;4.22;;;20.10;83.60;;;;;;6320863;22;20026;-75
2021/09/11 07:57:00;;;;;;;9.40;5.28;;;20.00;83.90;;;;;;6292102;22;20071;-75
2021/09/11 07:59:27;;;;;;;8.27;4.45;;;20.00;84.10;;;;;;6318891;22;20019;-75
2021/09/11 08:01:56;;;;;;;8.25;4.70;;;20.00;83.40;;;;;;6313329;22;20337;-76
2021/09/11 08:04:23;;;;;;;8.07;5.05;;;19.90;83.60;;;;;;6317495;22;20215;-74
2021/09/11 08:06:50;;;;;;;7.28;4.32;;;20.00;84.10;;;;;;6289440;22;20023;-74
2021/09/11 08:09:17;;;;;;;7.72;4.00;;;20.10;83.60;;;;;;6317266;22;20015;-76
2021/09/11 08:11:49;;;;;;;10.15;5.03;;;20.20;83.40;;;;;;6317887;22;20030;-74
2021/09/11 08:14:16;;;;;;;8.77;4.65;;;20.10;83.70;;;;;;6318640;22;20084;-75
2021/09/11 08:16:44;;;;;;;8.80;4.57;;;20.30;83.50;;;;;;6315367;22;20015;-75
2021/09/11 08:19:12;;;;;;;7.05;4.25;;;20.40;82.90;;;;;;6317608;22;20060;-75
2021/09/11 08:21:40;;;;;;;8.93;5.00;;;20.30;82.70;;;;;;6314920;22;20073;-75
2021/09/11 08:24:07;;;;;;;7.32;4.22;;;20.60;82.60;;;;;;6316428;22;20015;-74
2021/09/11 08:26:34;;;;;;;7.82;3.75;;;20.70;81.70;;;;;;6316501;22;20091;-74
2021/09/11 08:29:02;;;;;;;9.98;3.78;;;20.90;81.20;;;;;;6315745;22;20030;-74
2021/09/11 08:31:35;;;;;;;7.22;4.07;;;20.80;80.80;;;;;;6312713;22;20027;-75
2021/09/11 08:34:02;;;;;;;6.43;4.03;;;20.60;80.60;;;;;;6286797;22;20019;-75
2021/09/11 08:36:31;;;;;;;9.70;4.30;;;20.50;81.20;;;;;;6314428;22;20369;-75
2021/09/11 08:38:58;;;;;;;8.77;4.15;;;20.30;81.50;;;;;;6288789;22;20023;-75
2021/09/11 08:41:27;;;;;;;9.73;5.35;;;20.30;82.10;;;;;;6287765;22;20027;-76
2021/09/11 08:43:55;;;;;;;8.40;4.32;;;20.30;82.20;;;;;;6315270;22;20073;-75
2021/09/11 08:46:23;;;;;;;16.83;4.38;;;20.20;81.90;;;;;;6314495;22;20023;-74
2021/09/11 08:48:50;;;;;;;7.00;3.55;;;20.20;82.30;;;;;;6315327;22;20015;-74
2021/09/11 08:51:17;;;;;;;9.27;4.03;;;20.30;81.80;;;;;;6316156;22;20011;-74
2021/09/11 08:53:46;;;;;;;7.43;3.80;;;20.20;81.80;;;;;;6288895;22;20015;-75
2021/09/11 08:56:13;;;;;;;7.45;4.32;;;20.30;82.00;;;;;;6317394;22;20030;-74
2021/09/11 08:58:41;;;;;;;8.57;4.32;;;20.20;81.70;;;;;;6317628;22;20027;-76
2021/09/11 09:01:08;;;;;;;8.82;3.83;;;20.10;81.80;;;;;;6286975;22;20027;-75
2021/09/11 09:03:37;;;;;;;10.23;4.97;;;20.00;82.30;;;;;;6289280;22;20023;-75
2021/09/11 09:06:19;;;;;;;9.95;4.72;;;20.00;82.20;;;;;;6318053;22;20022;-75
2021/09/11 09:08:50;;;;;;;8.10;4.55;;;20.10;82.70;;;;;;6319247;22;20064;-75
2021/09/11 09:11:20;;;;;;;9.25;4.88;;;19.90;82.60;;;;;;6316951;22;20030;-76
2021/09/11 09:13:57;;;;;;;8.27;4.10;;;19.90;82.10;;;;;;6318039;22;20053;-75
2021/09/11 09:16:26;;;;;;;10.13;4.82;;;20.10;82.30;;;;;;6316532;22;20074;-75
2021/09/11 09:18:55;;;;;;;11.00;5.07;;;20.00;82.20;;;;;;6291318;22;20108;-74
2021/09/11 09:21:25;;;;;;;8.55;4.65;;;20.00;82.60;;;;;;6316861;22;20019;-74
2021/09/11 09:23:56;;;;;;;8.80;4.72;;;20.10;82.00;;;;;;6317793;22;20244;-75
2021/09/11 09:26:24;;;;;;;7.75;4.47;;;20.10;82.00;;;;;;6290518;22;20027;-75
2021/09/11 09:29:02;;;;;;;12.25;5.18;;;20.30;81.70;;;;;;6317421;22;20015;-75
2021/09/11 09:31:30;;;;;;;11.48;4.45;;;20.40;81.20;;;;;;6318758;22;20023;-75
2021/09/11 09:33:58;;;;;;;8.10;4.50;;;20.50;81.00;;;;;;6317095;22;20015;-75
2021/09/11 09:36:37;;;;;;;8.80;4.25;;;20.50;80.90;;;;;;6292611;22;20022;-75
2021/09/11 09:39:08;;;;;;;9.20;4.35;;;20.40;81.10;;;;;;6315237;22;20072;-75
2021/09/11 09:41:50;;;;;;;7.75;4.32;;;20.40;81.40;;;;;;6315695;22;20031;-74
2021/09/11 09:44:18;;;;;;;7.78;4.10;;;20.50;81.30;;;;;;6317362;22;20105;-75
2021/09/11 09:46:47;;;;;;;8.98;4.85;;;20.30;81.60;;;;;;6317006;22;20042;-75
2021/09/11 09:49:19;;;;;;;10.40;4.28;;;20.10;82.40;;;;;;6316496;22;20253;-76
2021/09/11 09:51:49;;;;;;;9.32;4.70;;;20.10;82.70;;;;;;6316376;22;20019;-76
2021/09/11 09:54:18;;;;;;;9.25;4.20;;;20.20;82.40;;;;;;6311022;22;20031;-76
2021/09/11 09:56:46;;;;;;;6.45;3.72;;;20.40;81.50;;;;;;6314851;22;20019;-74
2021/09/11 09:59:13;;;;;;;6.70;3.30;;;20.80;80.50;;;;;;6314059;22;20249;-75
2021/09/11 10:01:40;;;;;;;6.95;3.75;;;21.10;79.50;;;;;;6309443;22;20019;-74
2021/09/11 10:04:15;;;;;;;5.60;3.10;;;21.30;79.50;;;;;;6315136;22;20214;-75
2021/09/11 10:06:45;;;;;;;5.32;3.10;;;21.20;78.80;;;;;;6286815;22;20027;-75
2021/09/11 10:09:14;;;;;;;6.55;3.33;;;21.30;78.10;;;;;;6314803;22;20031;-77
2021/09/11 10:11:49;;;;;;;8.52;3.50;;;21.30;77.90;;;;;;6315188;22;20253;-74
2021/09/11 10:14:21;;;;;;;6.43;3.10;;;21.10;78.00;;;;;;6316238;22;20023;-74
2021/09/11 10:16:59;;;;;;;7.80;2.92;;;21.50;77.70;;;;;;6314465;22;20315;-77
2021/09/11 10:19:27;;;;;;;8.00;3.10;;;21.50;76.30;;;;;;6316096;22;20383;-75
2021/09/11 10:22:08;;;;;;;5.57;2.95;;;21.60;76.50;;;;;;6315458;22;20062;-76
2021/09/11 10:24:37;;;;;;;5.68;3.10;;;21.50;76.30;;;;;;6313965;22;20023;-75
2021/09/11 10:27:11;;;;;;;5.73;3.23;;;21.60;75.80;;;;;;6287775;22;20080;-74
2021/09/11 10:29:52;;;;;;;6.97;3.20;;;21.80;75.60;;;;;;6315407;22;20083;-75
2021/09/11 10:32:23;;;;;;;7.85;3.53;;;22.10;74.70;;;;;;6287977;22;20187;-75
2021/09/11 10:35:01;;;;;;;6.40;3.17;;;22.30;74.00;;;;;;6315456;22;20061;-74
2021/09/11 10:37:33;;;;;;;7.63;3.10;;;22.80;72.80;;;;;;6317295;22;20027;-75
2021/09/11 10:40:19;;;;;;;8.32;3.92;;;23.50;70.80;;;;;;6290178;22;20023;-74
2021/09/11 10:43:10;;;;;;;5.88;2.90;;;25.10;65.10;;;;;;6316021;22;20027;-75
2021/09/11 10:45:42;;;;;;;8.55;3.47;;;25.50;63.90;;;;;;6316313;22;20077;-75
2021/09/11 10:48:42;;;;;;;4.55;2.65;;;24.80;63.30;;;;;;6316743;22;20024;-75
2021/09/11 10:51:34;;;;;;;4.50;2.55;;;26.50;61.30;;;;;;6289658;22;20027;-75
2021/09/11 10:54:22;;;;;;;6.05;2.90;;;27.90;56.50;;;;;;6288916;22;20019;-75
2021/09/11 10:56:53;;;;;;;5.15;2.83;;;29.10;52.60;;;;;;6317026;22;20226;-74
2021/09/11 10:59:36;;;;;;;4.22;2.20;;;29.30;51.20;;;;;;6317137;22;20041;-76
2021/09/11 11:02:09;;;;;;;4.75;2.70;;;29.90;49.00;;;;;;6311572;22;20084;-74
2021/09/11 11:04:40;;;;;;;5.80;2.30;;;30.50;47.90;;;;;;6314459;22;20019;-75
2021/09/11 11:07:08;;;;;;;4.55;2.22;;;30.30;47.50;;;;;;6318660;22;20023;-75
2021/09/11 11:09:38;;;;;;;7.35;2.65;;;31.40;45.10;;;;;;6289299;22;20026;-74
2021/09/11 11:12:07;;;;;;;4.03;1.92;;;31.60;44.40;;;;;;6316469;22;20318;-75
2021/09/11 11:14:40;;;;;;;4.75;2.35;;;29.30;48.40;;;;;;6291055;22;20019;-75
2021/09/11 11:17:07;;;;;;;4.00;2.25;;;29.50;49.10;;;;;;6317237;22;20019;-74
2021/09/11 11:19:36;;;;;;;5.13;2.70;;;28.70;50.60;;;;;;6316062;22;20033;-75
2021/09/11 11:22:07;;;;;;;4.47;2.33;;;27.60;53.00;;;;;;6289145;22;20348;-74
2021/09/11 11:24:36;;;;;;;4.47;2.35;;;26.20;56.40;;;;;;6316039;22;20019;-74
2021/09/11 11:27:06;;;;;;;3.78;2.25;;;25.70;58.00;;;;;;6290015;22;20074;-74
2021/09/11 11:29:35;;;;;;;4.88;2.33;;;25.80;57.80;;;;;;6316946;22;20191;-74
2021/09/11 11:32:03;;;;;;;3.33;1.95;;;25.50;58.40;;;;;;6317841;22;20015;-75
2021/09/11 11:34:38;;;;;;;4.65;2.08;;;25.00;59.60;;;;;;6317351;22;20019;-75
2021/09/11 11:37:08;;;;;;;3.73;2.10;;;24.70;61.00;;;;;;6315173;22;20070;-75
2021/09/11 11:39:37;;;;;;;4.22;2.22;;;24.50;61.30;;;;;;6318665;22;20026;-75
2021/09/11 11:42:07;;;;;;;3.55;2.10;;;24.60;61.50;;;;;;6291949;22;20023;-74
2021/09/11 11:44:44;;;;;;;4.70;2.50;;;24.50;61.90;;;;;;6317776;22;20116;-74
2021/09/11 11:47:30;;;;;;;5.03;2.50;;;24.90;62.00;;;;;;6317875;22;20034;-75
2021/09/11 11:49:57;;;;;;;4.07;1.95;;;24.70;61.50;;;;;;6316671;22;20075;-75
2021/09/11 11:52:25;;;;;;;4.97;2.25;;;24.60;61.20;;;;;;6318356;22;20026;-74
2021/09/11 11:54:52;;;;;;;5.82;2.85;;;24.60;61.60;;;;;;6289347;22;20041;-74
2021/09/11 11:57:21;;;;;;;3.95;2.00;;;24.90;61.30;;;;;;6316876;22;20023;-76
2021/09/11 11:59:59;;;;;;;4.78;2.00;;;26.00;58.50;;;;;;6314775;22;20034;-75
2021/09/11 12:02:30;;;;;;;7.05;2.65;;;27.90;53.50;;;;;;6311151;22;20019;-74
2021/09/11 12:05:17;;;;;;;3.08;1.63;;;30.40;47.90;;;;;;6316396;22;20088;-75
2021/09/11 12:07:56;;;;;;;3.72;1.75;;;27.90;50.40;;;;;;6316567;22;20196;-74
2021/09/11 12:10:25;;;;;;;3.30;1.55;;;27.50;52.30;;;;;;6315856;22;20019;-74
2021/09/11 12:12:54;;;;;;;2.92;1.50;;;30.20;47.20;;;;;;6317581;22;20297;-76
2021/09/11 12:15:24;;;;;;;3.15;1.50;;;31.20;43.30;;;;;;6293273;22;20042;-74
2021/09/11 12:18:00;;;;;;;3.60;1.38;;;32.10;42.40;;;;;;6317836;22;20184;-75
2021/09/11 12:20:30;;;;;;;3.63;1.67;;;32.30;40.80;;;;;;6304732;22;20066;-76
2021/09/11 12:23:11;;;;;;;4.38;1.38;;;32.90;40.70;;;;;;6317533;22;20019;-75
2021/09/11 12:25:59;;;;;;;1.80;1.08;;;33.70;37.20;;;;;;6317823;22;20027;-75
2021/09/11 12:28:47;;;;;;;2.75;1.50;;;34.50;37.40;;;;;;6317846;22;20027;-74
2021/09/11 12:31:22;;;;;;;2.75;1.48;;;33.80;38.00;;;;;;6316697;22;20019;-76
2021/09/11 12:33:51;;;;;;;5.05;1.70;;;33.10;38.30;;;;;;6316599;22;20027;-75
2021/09/11 12:36:24;;;;;;;5.53;1.55;;;34.80;35.20;;;;;;6315386;22;20215;-75
2021/09/11 12:38:54;;;;;;;2.47;1.48;;;35.60;34.60;;;;;;6315860;22;20023;-75
2021/09/11 12:41:22;;;;;;;3.67;1.60;;;35.10;34.10;;;;;;6315382;22;20035;-75
2021/09/11 12:43:50;;;;;;;5.68;1.80;;;32.30;38.90;;;;;;6316121;22;20117;-75
2021/09/11 12:46:33;;;;;;;3.10;1.50;;;31.00;41.80;;;;;;6316137;22;20117;-74
2021/09/11 12:49:03;;;;;;;2.63;1.50;;;32.10;41.00;;;;;;6318606;22;20296;-74
2021/09/11 12:51:31;;;;;;;5.28;1.85;;;31.80;40.90;;;;;;6290254;22;20096;-74
2021/09/11 12:53:58;;;;;;;4.03;1.70;;;30.30;44.40;;;;;;6316445;22;20037;-74
2021/09/11 12:56:25;;;;;;;3.42;1.90;;;29.50;46.20;;;;;;6315824;22;20042;-74